Time;durP1;ratioP1;P1;durP2;ratioP2;P2;SDS_P1;SDS_P2;PMS_P1;PMS_P2;Temp;Humidity;BMP_temperature;BMP_pressure;BME280_temperature;BME280_humidity;BME280_pressure;Samples;Min_cycle;Max_cycle;Signal;HPM_P1;HPM_P2
2022/06/04 00:00:43;;;;;;;8.73;3.10;;;;;;;15.99;84.63;101452.91;5096702;28;20032;-80
2022/06/04 00:03:09;;;;;;;5.70;2.78;;;;;;;16.07;84.72;101448.56;5082287;28;20403;-79
2022/06/04 00:05:38;;;;;;;12.63;2.50;;;;;;;15.98;85.38;101442.00;5076299;28;20040;-79
2022/06/04 00:08:06;;;;;;;5.68;3.28;;;;;;;15.88;83.86;101436.47;5067348;28;20036;-81
2022/06/04 00:16:08;;;;;;;7.80;2.88;;;;;;;15.81;85.04;101418.72;5077120;28;20068;-79
2022/06/04 00:18:34;;;;;;;2.78;2.40;;;;;;;15.82;85.09;101437.03;5078637;28;20040;-79
2022/06/04 00:21:00;;;;;;;7.03;2.60;;;;;;;15.66;84.39;101432.03;5089921;28;20040;-80
2022/06/04 00:23:26;;;;;;;3.95;2.60;;;;;;;15.67;84.53;101444.81;5087474;28;20044;-79
2022/06/04 00:25:56;;;;;;;5.97;2.63;;;;;;;15.63;85.17;101446.97;5060760;28;20033;-79
2022/06/04 00:28:23;;;;;;;4.03;2.50;;;;;;;15.59;85.99;101441.88;5094644;28;20056;-80
2022/06/04 00:30:50;;;;;;;8.25;2.63;;;;;;;15.58;85.26;101454.81;5074268;28;20040;-79
2022/06/04 00:33:17;;;;;;;9.45;2.60;;;;;;;15.55;85.94;101452.31;5081807;28;20051;-80
2022/06/04 00:35:44;;;;;;;7.22;2.63;;;;;;;15.52;86.32;101457.25;5094612;28;20031;-80
2022/06/04 00:38:14;;;;;;;6.72;2.72;;;;;;;15.43;85.67;101456.22;5066154;28;20495;-80
2022/06/04 00:41:02;;;;;;;4.35;2.55;;;;;;;15.38;85.75;101452.97;5086394;28;20050;-79
2022/06/04 00:43:28;;;;;;;7.15;2.50;;;;;;;15.35;84.74;101445.00;5090151;28;20394;-79
2022/06/04 00:46:18;;;;;;;6.05;2.40;;;;;;;15.41;83.30;101437.03;5087877;28;20036;-79
2022/06/04 00:48:44;;;;;;;14.05;2.95;;;;;;;15.32;84.91;101437.84;5088598;28;20052;-80
2022/06/04 00:51:09;;;;;;;9.93;2.72;;;;;;;15.20;84.83;101436.19;5080796;28;20031;-80
2022/06/04 00:53:36;;;;;;;7.75;2.60;;;;;;;15.23;84.08;101449.69;5072981;28;20036;-80
2022/06/04 00:56:28;;;;;;;6.78;2.42;;;;;;;15.27;83.66;101455.84;5060198;28;20115;-80
2022/06/04 00:59:21;;;;;;;7.32;2.42;;;;;;;15.28;82.93;101463.94;5077102;28;20506;-79
2022/06/04 01:02:16;;;;;;;5.35;2.63;;;;;;;15.28;83.53;101469.47;5082400;28;20036;-80
2022/06/04 01:04:55;;;;;;;8.68;2.67;;;;;;;15.34;83.57;101473.56;5086651;28;20024;-78
2022/06/04 01:07:47;;;;;;;5.20;2.38;;;;;;;15.24;83.79;101479.03;5080372;28;20068;-80
2022/06/04 01:10:31;;;;;;;4.03;1.77;;;;;;;15.24;83.91;101470.78;5077381;28;20092;-81
2022/06/04 01:13:04;;;;;;;5.68;2.22;;;;;;;15.34;84.28;101479.09;5091798;28;20036;-80
2022/06/04 01:15:53;;;;;;;5.00;2.30;;;;;;;15.25;84.86;101478.91;5093088;28;20033;-81
2022/06/04 01:18:34;;;;;;;11.10;3.08;;;;;;;15.38;82.98;101489.72;5079543;28;20036;-80
2022/06/04 01:21:19;;;;;;;5.85;2.40;;;;;;;15.24;83.08;101485.44;5092413;28;20480;-80
2022/06/04 01:24:37;;;;;;;7.40;2.40;;;;;;;15.16;84.16;101488.00;5076063;28;20077;-80
2022/06/04 01:27:21;;;;;;;6.43;2.60;;;;;;;15.19;84.19;101486.84;4992155;28;20085;-79
2022/06/04 01:29:51;;;;;;;6.68;2.92;;;;;;;15.13;83.64;101493.78;5079336;28;20127;-79
2022/06/04 01:32:35;;;;;;;4.38;2.60;;;;;;;15.10;83.84;101491.28;5081612;28;20484;-80
2022/06/04 01:35:35;;;;;;;7.90;2.75;;;;;;;15.11;84.00;101494.94;5097448;28;20779;-80
2022/06/04 01:38:07;;;;;;;5.32;2.42;;;;;;;15.15;83.64;101491.78;5077066;28;20077;-80
2022/06/04 01:43:26;;;;;;;7.50;2.45;;;;;;;15.17;84.64;101511.81;5099613;28;20063;-79
2022/06/04 01:45:55;;;;;;;5.80;2.70;;;;;;;15.09;84.47;101519.91;5082080;28;20037;-81
2022/06/04 01:48:24;;;;;;;5.47;3.15;;;;;;;15.10;84.42;101518.88;5080631;28;20058;-80
2022/06/04 01:51:03;;;;;;;5.45;2.75;;;;;;;15.09;84.13;101514.38;5064459;28;20098;-81
2022/06/04 01:53:34;;;;;;;5.35;2.72;;;;;;;15.10;84.19;101515.25;5077754;28;20063;-79
2022/06/04 01:56:11;;;;;;;5.07;2.65;;;;;;;15.00;84.89;101512.41;5090998;28;20040;-80
2022/06/04 01:58:49;;;;;;;12.30;3.15;;;;;;;14.92;84.73;101504.84;5080938;28;20509;-79
2022/06/04 02:01:20;;;;;;;6.40;2.85;;;;;;;14.99;85.42;101506.03;5082106;28;20033;-79
2022/06/04 02:03:56;;;;;;;3.10;2.72;;;;;;;14.89;84.52;101496.84;5091521;28;20036;-80
2022/06/04 02:06:25;;;;;;;6.50;2.72;;;;;;;14.92;85.67;101514.97;5080803;28;20064;-79
2022/06/04 02:08:56;;;;;;;11.07;3.10;;;;;;;14.93;85.81;101517.59;5085196;28;20086;-78
2022/06/04 02:11:24;;;;;;;5.35;3.05;;;;;;;14.83;84.75;101522.16;5096828;28;20043;-79
2022/06/04 02:13:54;;;;;;;11.65;5.00;;;;;;;14.74;86.13;101512.81;5099325;28;20044;-80
2022/06/04 02:16:30;;;;;;;6.03;3.22;;;;;;;14.77;85.91;101512.53;5065854;28;20613;-81
2022/06/04 02:18:57;;;;;;;7.68;3.22;;;;;;;14.71;86.19;101510.34;5082735;28;20032;-80
2022/06/04 02:21:24;;;;;;;9.93;3.60;;;;;;;14.80;85.86;101512.28;5088530;28;20032;-79
2022/06/04 02:23:54;;;;;;;6.03;3.10;;;;;;;14.70;86.98;101512.19;5084574;28;20519;-80
2022/06/04 02:26:19;;;;;;;9.90;3.50;;;;;;;14.58;87.35;101513.22;5062284;28;20031;-80
2022/06/04 02:28:46;;;;;;;5.90;3.17;;;;;;;14.59;87.25;101515.00;5069927;28;20037;-80
2022/06/04 02:31:41;;;;;;;9.18;3.15;;;;;;;14.47;87.78;101516.88;5077505;28;20052;-79
2022/06/04 02:34:21;;;;;;;6.68;3.00;;;;;;;14.49;89.03;101505.75;5088188;28;20035;-80
2022/06/04 02:37:06;;;;;;;10.90;3.15;;;;;;;14.53;88.38;101507.25;5098640;28;20036;-80
2022/06/04 02:39:44;;;;;;;4.20;3.00;;;;;;;14.48;89.80;101501.25;5062111;28;20028;-79
2022/06/04 02:42:10;;;;;;;7.25;3.92;;;;;;;14.50;89.51;101494.59;5088429;28;20039;-80
2022/06/04 02:44:53;;;;;;;7.97;3.42;;;;;;;14.43;90.63;101490.63;5098955;28;20028;-79
2022/06/04 02:47:23;;;;;;;6.63;3.57;;;;;;;14.49;90.65;101495.63;5078301;28;20519;-79
2022/06/04 02:50:03;;;;;;;14.23;3.80;;;;;;;14.46;91.27;101483.94;5089114;28;20325;-80
2022/06/04 02:52:33;;;;;;;10.00;3.55;;;;;;;14.39;91.31;101486.34;5091604;28;20068;-80
2022/06/04 02:55:07;;;;;;;8.07;3.58;;;;;;;14.32;91.86;101485.16;5069800;28;20493;-80
2022/06/04 02:57:35;;;;;;;11.18;3.70;;;;;;;14.30;91.54;101474.25;5093717;28;20510;-80
2022/06/04 03:00:01;;;;;;;8.77;4.63;;;;;;;14.15;91.99;101459.03;5081029;28;20040;-78
2022/06/04 03:02:30;;;;;;;9.38;4.07;;;;;;;14.14;93.12;101462.78;5063292;28;20036;-77
2022/06/04 03:04:56;;;;;;;10.77;4.00;;;;;;;14.12;93.83;101462.91;5075032;28;20055;-78
2022/06/04 03:07:24;;;;;;;6.82;3.83;;;;;;;14.13;94.12;101463.78;5081910;28;20471;-77
2022/06/04 03:10:01;;;;;;;9.55;4.75;;;;;;;14.13;95.29;101461.03;5064227;28;20157;-77
2022/06/04 03:12:27;;;;;;;5.72;4.15;;;;;;;14.18;94.30;101463.41;5077942;28;20047;-78
2022/06/04 03:14:53;;;;;;;15.85;5.45;;;;;;;14.12;95.14;101464.81;5080365;28;20041;-77
2022/06/04 03:17:19;;;;;;;7.75;4.22;;;;;;;14.14;95.10;101463.66;5069664;28;20494;-77
2022/06/04 03:19:46;;;;;;;10.32;4.53;;;;;;;13.98;96.13;101468.72;5086846;28;20364;-77
2022/06/04 03:22:11;;;;;;;7.35;4.10;;;;;;;14.04;96.24;101467.34;5091143;28;20073;-77
2022/06/04 03:24:37;;;;;;;11.63;4.70;;;;;;;13.99;97.01;101473.22;5056962;28;20047;-77
2022/06/04 03:27:03;;;;;;;12.82;5.07;;;;;;;14.01;97.88;101471.22;5074933;28;20086;-76
2022/06/04 03:29:28;;;;;;;10.95;5.13;;;;;;;14.00;97.53;101472.19;5082463;28;20056;-76
2022/06/04 03:31:54;;;;;;;15.55;5.38;;;;;;;13.87;98.58;101475.13;5081283;28;20044;-77
2022/06/04 03:34:19;;;;;;;12.95;5.18;;;;;;;14.03;98.50;101479.34;5051328;28;20044;-77
2022/06/04 03:36:49;;;;;;;16.48;5.78;;;;;;;14.00;98.74;101483.22;5072728;28;20036;-78
2022/06/04 03:39:14;;;;;;;16.55;6.70;;;;;;;13.91;99.18;101478.50;5063823;28;20043;-77
2022/06/04 03:41:40;;;;;;;12.75;5.45;;;;;;;13.90;100.00;101483.09;5075602;28;20040;-77
2022/06/04 03:44:06;;;;;;;10.05;5.70;;;;;;;13.93;100.00;101484.75;5059236;28;20036;-77
2022/06/04 03:46:32;;;;;;;13.57;6.80;;;;;;;13.86;100.00;101484.38;5064623;28;20032;-77
2022/06/04 03:48:58;;;;;;;12.98;6.07;;;;;;;13.93;100.00;101490.25;5074650;28;20025;-77
2022/06/04 03:51:26;;;;;;;12.90;6.13;;;;;;;13.85;100.00;101484.50;5093408;28;20028;-78
2022/06/04 03:53:52;;;;;;;16.95;6.03;;;;;;;13.83;100.00;101478.25;5092413;28;20039;-77
2022/06/04 03:56:20;;;;;;;15.43;5.72;;;;;;;13.95;100.00;101477.22;5085955;28;20047;-77
2022/06/04 03:58:45;;;;;;;16.73;6.13;;;;;;;13.81;100.00;101471.97;5078668;28;20028;-77
2022/06/04 04:01:19;;;;;;;16.67;6.47;;;;;;;13.86;100.00;101481.63;5088769;28;22098;-77
2022/06/04 04:03:45;;;;;;;14.32;6.72;;;;;;;13.72;100.00;101480.00;5081467;28;20081;-77
2022/06/04 04:06:13;;;;;;;14.48;7.30;;;;;;;13.73;100.00;101487.25;5091735;28;20059;-77
2022/06/04 04:08:39;;;;;;;14.02;7.07;;;;;;;13.79;100.00;101496.91;5090469;28;20399;-77
2022/06/04 04:11:06;;;;;;;29.88;7.45;;;;;;;13.81;100.00;101494.00;5092715;28;20036;-76
2022/06/04 04:13:32;;;;;;;15.98;7.78;;;;;;;13.80;100.00;101495.88;5087758;28;20039;-77
2022/06/04 04:16:01;;;;;;;25.42;8.90;;;;;;;13.65;100.00;101505.41;5040013;28;20036;-76
2022/06/04 04:18:26;;;;;;;17.30;7.15;;;;;;;13.81;100.00;101500.41;5090485;28;20105;-78
2022/06/04 04:20:52;;;;;;;18.63;7.72;;;;;;;13.71;100.00;101497.53;5070839;28;20471;-77
2022/06/04 04:23:17;;;;;;;29.08;8.98;;;;;;;13.67;100.00;101493.25;5069706;28;20741;-77
2022/06/04 04:25:43;;;;;;;20.95;8.32;;;;;;;13.68;100.00;101499.66;5071502;28;20480;-76
2022/06/04 04:28:10;;;;;;;15.90;8.43;;;;;;;13.70;100.00;101495.78;5086663;28;20048;-77
2022/06/04 04:30:37;;;;;;;20.65;8.85;;;;;;;13.66;100.00;101496.13;5074607;28;20043;-77
2022/06/04 04:33:05;;;;;;;17.85;9.20;;;;;;;13.63;100.00;101496.41;5085130;28;20373;-76
2022/06/04 04:35:34;;;;;;;16.48;9.75;;;;;;;13.51;100.00;101487.25;5086465;28;20085;-77
2022/06/04 04:38:00;;;;;;;20.33;9.55;;;;;;;13.59;100.00;101491.16;5084366;28;20029;-78
2022/06/04 04:40:28;;;;;;;19.90;8.85;;;;;;;13.64;100.00;101493.50;5079140;28;20036;-77
2022/06/04 04:42:54;;;;;;;21.45;9.93;;;;;;;13.63;100.00;101505.53;5090989;28;20039;-78
2022/06/04 04:45:22;;;;;;;25.17;9.88;;;;;;;13.66;100.00;101516.31;5080916;28;20036;-77
2022/06/04 04:47:48;;;;;;;30.48;10.60;;;;;;;13.58;100.00;101514.16;5077259;28;20039;-76
2022/06/04 04:50:22;;;;;;;22.45;9.38;;;;;;;13.59;100.00;101524.19;5059950;28;20048;-77
2022/06/04 04:52:48;;;;;;;26.55;11.30;;;;;;;13.58;100.00;101527.94;5084795;28;20039;-77
2022/06/04 04:55:14;;;;;;;27.65;10.50;;;;;;;13.61;100.00;101526.81;5084571;28;20144;-78
2022/06/04 04:57:40;;;;;;;21.45;10.18;;;;;;;13.76;100.00;101536.56;5051563;28;20305;-77
2022/06/04 05:00:07;;;;;;;41.28;10.18;;;;;;;13.79;100.00;101530.81;5083054;28;20060;-77
2022/06/04 05:02:34;;;;;;;25.00;11.10;;;;;;;13.82;100.00;101542.56;5077856;28;20028;-77
2022/06/04 05:04:59;;;;;;;29.35;11.20;;;;;;;13.76;100.00;101547.56;5073400;28;20093;-77
2022/06/04 05:07:25;;;;;;;32.30;11.75;;;;;;;13.90;100.00;101542.81;5072071;28;20035;-76
2022/06/04 05:09:51;;;;;;;24.33;11.90;;;;;;;13.95;100.00;101541.44;5059943;28;20036;-76
2022/06/04 05:12:17;;;;;;;23.25;11.05;;;;;;;14.00;100.00;101546.53;5084204;28;20042;-77
2022/06/04 05:14:43;;;;;;;20.83;11.60;;;;;;;13.98;100.00;101543.03;5073925;28;20425;-78
2022/06/04 05:17:08;;;;;;;30.65;11.88;;;;;;;13.94;100.00;101539.69;5090267;28;20416;-76
2022/06/04 05:19:34;;;;;;;22.17;12.35;;;;;;;14.13;100.00;101544.53;5070888;28;20041;-77
2022/06/04 05:21:59;;;;;;;30.23;13.13;;;;;;;14.16;100.00;101538.75;5052754;28;20032;-76
2022/06/04 05:24:27;;;;;;;36.17;13.40;;;;;;;14.11;100.00;101537.41;5063190;28;20043;-76
2022/06/04 05:26:53;;;;;;;27.58;12.43;;;;;;;14.13;100.00;101540.91;5081168;28;20056;-76
2022/06/04 05:29:20;;;;;;;28.30;12.40;;;;;;;14.20;100.00;101547.66;5076559;28;20398;-78
2022/06/04 05:31:46;;;;;;;35.17;13.73;;;;;;;14.30;100.00;101553.28;5075438;28;20570;-77
2022/06/04 05:34:14;;;;;;;28.17;13.13;;;;;;;14.15;100.00;101559.06;5073754;28;20395;-77
2022/06/04 05:36:39;;;;;;;31.35;13.48;;;;;;;14.14;100.00;101561.94;5081991;28;20412;-76
2022/06/04 05:39:07;;;;;;;27.25;13.43;;;;;;;14.26;100.00;101555.38;5073609;28;20105;-76
2022/06/04 05:41:34;;;;;;;28.58;13.43;;;;;;;14.20;100.00;101561.44;5063894;28;20039;-76
2022/06/04 05:43:59;;;;;;;37.63;15.40;;;;;;;14.18;100.00;101570.81;5072086;28;20040;-75
2022/06/04 05:46:25;;;;;;;30.40;13.60;;;;;;;14.29;100.00;101563.41;5051170;28;20090;-77
2022/06/04 05:48:51;;;;;;;32.33;13.68;;;;;;;14.30;100.00;101564.28;5076927;28;20041;-76
2022/06/04 05:51:21;;;;;;;37.03;14.20;;;;;;;14.37;100.00;101567.41;5089044;28;20035;-76
2022/06/04 05:53:48;;;;;;;32.72;14.48;;;;;;;14.28;100.00;101577.28;5053020;28;20467;-77
2022/06/04 05:56:19;;;;;;;38.97;14.07;;;;;;;14.35;100.00;101570.28;5065277;28;20040;-76
2022/06/04 05:58:46;;;;;;;29.65;14.18;;;;;;;14.40;100.00;101568.03;5084136;28;20043;-76
2022/06/04 06:01:13;;;;;;;38.88;14.68;;;;;;;14.48;100.00;101564.63;5084686;28;20036;-75
2022/06/04 06:03:40;;;;;;;32.85;15.32;;;;;;;14.49;100.00;101574.63;5091316;28;20055;-76
2022/06/04 06:06:11;;;;;;;39.50;15.52;;;;;;;14.42;100.00;101579.78;5090611;28;20115;-75
2022/06/04 06:08:36;;;;;;;33.60;15.98;;;;;;;14.42;100.00;101588.03;5086466;28;20035;-75
2022/06/04 06:11:08;;;;;;;38.83;16.48;;;;;;;14.42;100.00;101593.56;5072352;28;20033;-74
2022/06/04 06:13:34;;;;;;;37.77;16.17;;;;;;;14.32;100.00;101595.34;5078351;28;20089;-74
2022/06/04 06:16:08;;;;;;;49.00;16.40;;;;;;;14.41;100.00;101591.78;5057245;28;20286;-75
2022/06/04 06:18:34;;;;;;;36.80;16.23;;;;;;;14.46;100.00;101589.56;5082777;28;20032;-75
2022/06/04 06:21:14;;;;;;;40.70;15.88;;;;;;;14.59;100.00;101588.50;5088331;28;20458;-74
2022/06/04 06:23:40;;;;;;;50.00;16.52;;;;;;;14.60;100.00;101593.94;5097470;28;20020;-75
2022/06/04 06:26:11;;;;;;;41.58;16.67;;;;;;;14.70;100.00;101594.03;5066630;28;20135;-75
2022/06/04 06:28:39;;;;;;;40.40;16.65;;;;;;;14.62;100.00;101589.16;5063606;28;20115;-75
2022/06/04 06:31:05;;;;;;;40.53;15.52;;;;;;;14.79;100.00;101589.59;5082238;28;20135;-74
2022/06/04 06:33:31;;;;;;;38.58;16.35;;;;;;;14.65;100.00;101594.41;5085816;28;20043;-75
2022/06/04 06:35:59;;;;;;;43.88;17.45;;;;;;;14.76;100.00;101601.78;5076908;28;20040;-75
2022/06/04 06:38:25;;;;;;;54.30;17.42;;;;;;;14.56;100.00;101603.44;5089357;28;20036;-76
2022/06/04 06:40:53;;;;;;;51.53;17.98;;;;;;;14.49;100.00;101594.81;5060549;28;20043;-75
2022/06/04 06:43:19;;;;;;;42.70;16.85;;;;;;;14.56;100.00;101599.78;5073875;28;20040;-75
2022/06/04 06:45:45;;;;;;;44.15;16.77;;;;;;;14.76;100.00;101599.03;5071340;28;20115;-75
2022/06/04 06:48:11;;;;;;;43.17;18.35;;;;;;;14.95;100.00;101595.53;5087945;28;20052;-75
2022/06/04 06:50:37;;;;;;;43.65;17.48;;;;;;;14.85;100.00;101598.22;5082841;28;20032;-77
2022/06/04 06:53:04;;;;;;;47.55;18.85;;;;;;;14.96;100.00;101601.97;5044138;28;20033;-76
2022/06/04 06:55:30;;;;;;;36.83;16.70;;;;;;;15.07;100.00;101604.66;5070288;28;20039;-76
2022/06/04 06:57:55;;;;;;;45.42;16.42;;;;;;;15.18;100.00;101606.47;5069616;28;20363;-75
2022/06/04 07:00:21;;;;;;;49.40;18.38;;;;;;;15.01;100.00;101600.53;5077014;28;20045;-78
2022/06/04 07:02:46;;;;;;;39.60;17.60;;;;;;;15.23;100.00;101606.94;5077033;28;20040;-78
2022/06/04 07:05:13;;;;;;;44.13;17.42;;;;;;;15.26;100.00;101601.16;5091228;28;20036;-77
2022/06/04 07:07:39;;;;;;;53.13;18.23;;;;;;;15.28;100.00;101595.53;5076844;28;20491;-78
2022/06/04 07:10:06;;;;;;;38.10;16.42;;;;;;;15.30;100.00;101593.50;5094714;28;20036;-78
2022/06/04 07:12:32;;;;;;;47.80;17.77;;;;;;;15.58;100.00;101609.38;5044324;28;20060;-77
2022/06/04 07:15:02;;;;;;;46.35;17.77;;;;;;;15.55;100.00;101608.78;5054060;28;20127;-77
2022/06/04 07:17:28;;;;;;;46.10;17.92;;;;;;;15.71;100.00;101620.22;5083358;28;20511;-80
2022/06/04 07:19:54;;;;;;;45.47;17.40;;;;;;;15.78;100.00;101623.34;5074310;28;20107;-80
2022/06/04 07:22:20;;;;;;;44.67;17.27;;;;;;;15.69;100.00;101629.63;5079013;28;20031;-81
2022/06/04 07:24:45;;;;;;;59.35;18.38;;;;;;;15.62;100.00;101626.56;5071570;28;20036;-79
2022/06/04 07:27:11;;;;;;;40.53;18.17;;;;;;;15.57;100.00;101624.19;5079683;28;20121;-80
2022/06/04 07:29:37;;;;;;;50.10;18.17;;;;;;;15.48;100.00;101616.75;5080705;28;20040;-79
2022/06/04 07:32:04;;;;;;;53.42;20.45;;;;;;;15.37;100.00;101623.19;5089817;28;20040;-80
2022/06/04 07:34:30;;;;;;;50.25;19.40;;;;;;;15.59;100.00;101616.66;5089413;28;20415;-80
2022/06/04 07:36:57;;;;;;;50.58;19.77;;;;;;;15.47;100.00;101617.75;5056641;28;20040;-79
2022/06/04 07:39:23;;;;;;;49.22;20.25;;;;;;;15.40;100.00;101608.25;5058563;28;20036;-80
2022/06/04 07:41:52;;;;;;;57.30;21.25;;;;;;;15.35;100.00;101600.38;5075373;28;20099;-80
2022/06/04 07:44:19;;;;;;;57.15;20.63;;;;;;;15.54;100.00;101604.28;5089710;28;20036;-77
2022/06/04 07:46:46;;;;;;;48.60;20.85;;;;;;;15.73;100.00;101607.16;5084779;28;20051;-82
2022/06/04 07:49:13;;;;;;;49.97;22.23;;;;;;;15.99;100.00;101613.13;5052895;28;20040;-80
2022/06/04 07:51:42;;;;;;;49.53;19.35;;;;;;;16.35;100.00;101618.22;5059545;28;20107;-82
2022/06/04 07:54:08;;;;;;;48.30;21.27;;;;;;;16.02;100.00;101616.63;5088673;28;20028;-81
2022/06/04 07:56:35;;;;;;;51.67;21.27;;;;;;;15.93;100.00;101610.03;5083028;28;20032;-82
2022/06/04 07:59:00;;;;;;;54.67;21.33;;;;;;;15.94;100.00;101626.47;5094139;28;20121;-81
2022/06/04 08:01:28;;;;;;;49.00;21.35;;;;;;;15.83;100.00;101629.31;5045499;28;20484;-82
2022/06/04 08:03:55;;;;;;;54.55;22.15;;;;;;;15.87;100.00;101622.53;5070314;28;20052;-82
2022/06/04 08:06:22;;;;;;;55.58;20.88;;;;;;;16.14;100.00;101621.91;5060840;28;20036;-82
2022/06/04 08:08:51;;;;;;;46.53;19.25;;;;;;;16.21;100.00;101625.00;5078123;28;20518;-81
2022/06/04 08:11:30;;;;;;;48.47;19.50;;;;;;;16.08;100.00;101605.88;5075741;28;20468;-80
2022/06/04 08:14:07;;;;;;;50.70;22.15;;;;;;;16.05;98.77;101608.06;5072295;28;20032;-81
2022/06/04 08:16:41;;;;;;;49.97;20.60;;;;;;;16.30;99.94;101602.06;5074531;28;20044;-80
2022/06/04 08:19:08;;;;;;;49.85;21.05;;;;;;;16.31;99.73;101608.44;5077091;28;20074;-82
2022/06/04 08:21:35;;;;;;;111.55;44.53;;;;;;;16.49;99.27;101615.03;5075742;28;20056;-81
2022/06/04 08:24:01;;;;;;;47.17;20.40;;;;;;;16.57;97.46;101617.09;5081744;28;20040;-81
2022/06/04 08:26:30;;;;;;;53.22;21.67;;;;;;;16.62;96.78;101616.69;5088947;28;20624;-81
2022/06/04 08:28:56;;;;;;;46.70;19.85;;;;;;;16.85;96.09;101611.81;5057499;28;20395;-80
2022/06/04 08:31:22;;;;;;;49.50;19.42;;;;;;;16.92;95.51;101617.63;5076043;28;20056;-81
2022/06/04 08:33:48;;;;;;;52.60;20.98;;;;;;;17.06;94.51;101611.69;5061163;28;20063;-81
2022/06/04 08:36:16;;;;;;;48.97;20.35;;;;;;;16.95;94.22;101609.91;5076972;28;20070;-80
2022/06/04 08:38:42;;;;;;;49.97;19.45;;;;;;;17.12;94.46;101616.63;5077990;28;20032;-80
2022/06/04 08:41:20;;;;;;;51.13;20.77;;;;;;;17.26;92.25;101618.94;5077637;28;20039;-80
2022/06/04 08:43:53;;;;;;;45.33;18.48;;;;;;;17.25;93.58;101630.19;5091323;28;20088;-82
2022/06/04 08:46:29;;;;;;;51.70;18.88;;;;;;;17.43;93.55;101639.50;5091761;28;20039;-80
2022/06/04 08:48:57;;;;;;;47.00;19.05;;;;;;;17.33;93.02;101630.31;5086797;28;20036;-80
2022/06/04 08:51:27;;;;;;;42.97;19.17;;;;;;;17.56;93.00;101635.53;5072449;28;20020;-81
2022/06/04 08:57:32;;;;;;;40.70;18.83;;;;;;;17.73;91.68;101632.00;5069655;28;20509;-80
2022/06/04 08:59:52;;;;;;;40.13;19.23;;;;;;;17.83;92.25;101616.22;5083593;28;20051;-81
2022/06/04 09:02:22;;;;;;;38.85;17.80;;;;;;;18.39;90.14;101619.09;5075464;28;20039;-81
2022/06/04 09:04:52;;;;;;;46.90;19.20;;;;;;;18.40;89.70;101617.19;5087435;28;20035;-80
2022/06/04 09:07:31;;;;;;;43.42;19.95;;;;;;;18.39;89.42;101626.53;5089303;28;20040;-81
2022/06/04 09:10:24;;;;;;;41.92;19.58;;;;;;;18.69;90.84;101617.00;5077179;28;20471;-81
2022/06/04 09:13:24;;;;;;;41.83;18.88;;;;;;;18.86;86.75;101618.97;5081638;28;20086;-83
2022/06/04 09:15:52;;;;;;;46.63;19.25;;;;;;;18.84;85.10;101617.38;5079394;28;20039;-80
2022/06/04 09:18:27;;;;;;;49.60;19.20;;;;;;;19.23;85.72;101615.19;5084387;28;20035;-81
2022/06/04 09:20:59;;;;;;;45.72;18.70;;;;;;;19.18;84.67;101617.53;5081005;28;20036;-78
2022/06/04 09:23:45;;;;;;;43.67;19.73;;;;;;;19.38;84.46;101625.69;5072615;28;20032;-79
2022/06/04 09:26:13;;;;;;;43.28;18.40;;;;;;;19.71;84.20;101620.41;5098698;28;20047;-78
2022/06/04 09:29:08;;;;;;;50.10;19.58;;;;;;;19.91;83.41;101610.00;5068654;28;20044;-78
2022/06/04 09:31:36;;;;;;;52.67;20.83;;;;;;;19.98;82.36;101622.19;5092650;28;20044;-79
2022/06/04 09:34:12;;;;;;;40.10;18.73;;;;;;;20.37;80.88;101621.69;5097246;28;20035;-78
2022/06/04 09:36:40;;;;;;;44.90;19.52;;;;;;;20.37;78.27;101630.91;5077167;28;20085;-78
2022/06/04 09:39:22;;;;;;;41.42;21.48;;;;;;;20.06;78.65;101632.50;5077437;28;20395;-79
2022/06/04 09:41:54;;;;;;;42.83;20.08;;;;;;;20.08;78.90;101641.53;5062476;28;20036;-79
2022/06/04 09:44:21;;;;;;;42.85;18.55;;;;;;;20.38;78.06;101634.53;5084904;28;20429;-79
2022/06/04 09:46:49;;;;;;;45.13;19.45;;;;;;;20.97;74.82;101631.81;5076123;28;20058;-78
2022/06/04 09:49:30;;;;;;;53.88;18.75;;;;;;;21.19;76.13;101646.16;5079379;28;20052;-78
2022/06/04 09:51:56;;;;;;;42.13;19.48;;;;;;;20.86;77.09;101640.50;5093112;28;20044;-80
2022/06/04 09:54:29;;;;;;;43.47;20.90;;;;;;;21.29;73.97;101646.84;5070298;28;20103;-79
2022/06/04 09:57:02;;;;;;;46.58;20.30;;;;;;;21.02;73.74;101632.19;5080356;28;20060;-80
2022/06/04 09:59:32;;;;;;;44.20;19.60;;;;;;;21.13;73.68;101638.47;5077349;28;20484;-79
2022/06/04 10:02:18;;;;;;;48.25;20.67;;;;;;;20.92;75.34;101631.47;5087753;28;20547;-79
2022/06/04 10:04:48;;;;;;;39.25;20.38;;;;;;;21.67;71.74;101636.94;5107133;28;20028;-79
2022/06/04 10:07:30;;;;;;;45.45;19.90;;;;;;;21.69;72.96;101630.31;5097076;28;20116;-80
2022/06/04 10:09:58;;;;;;;41.67;19.42;;;;;;;22.69;68.48;101635.44;5089911;28;20028;-81
2022/06/04 10:13:42;;;;;;;39.80;19.35;;;;;;;22.95;66.79;101637.91;5075064;28;20452;-80
2022/06/04 10:15:25;;;;;;;49.93;19.73;;;;;;;22.92;66.00;101635.50;5096083;28;20036;-79
2022/06/04 10:18:26;;;;;;;39.55;20.45;;;;;;;22.68;68.73;101636.53;5090344;28;20335;-79
2022/06/04 10:21:06;;;;;;;48.40;20.20;;;;;;;23.15;66.24;101649.50;5043093;28;20407;-79
2022/06/04 10:23:45;;;;;;;42.35;18.40;;;;;;;23.33;66.38;101640.81;5076809;28;20024;-80
2022/06/04 10:26:29;;;;;;;47.75;21.98;;;;;;;23.21;65.65;101645.13;5078998;28;20033;-80
2022/06/04 10:29:28;;;;;;;41.10;19.95;;;;;;;23.75;64.90;101642.22;5096049;28;20032;-79
2022/06/04 10:31:54;;;;;;;38.22;19.85;;;;;;;23.59;64.72;101640.44;5081165;28;20037;-80
2022/06/04 10:34:57;;;;;;;38.38;17.90;;;;;;;24.45;62.46;101631.69;5069392;28;20434;-80
2022/06/04 10:37:41;;;;;;;35.13;18.90;;;;;;;24.20;61.66;101645.09;5083891;28;20028;-80
2022/06/04 10:40:16;;;;;;;46.03;20.77;;;;;;;23.73;64.03;101635.94;5077520;28;20037;-80
2022/06/04 10:42:41;;;;;;;44.25;20.67;;;;;;;23.51;64.26;101645.25;5083729;28;20115;-80
2022/06/04 10:45:22;;;;;;;48.13;20.30;;;;;;;24.27;64.46;101636.78;5079242;28;20048;-79
2022/06/04 10:48:09;;;;;;;44.83;20.30;;;;;;;24.01;62.63;101654.94;5078224;28;20107;-79
2022/06/04 10:53:47;;;;;;;47.17;21.73;;;;;;;23.87;62.32;101648.25;5076820;28;20515;-78
2022/06/04 10:56:20;;;;;;;38.20;20.40;;;;;;;24.07;61.92;101639.31;5078194;28;20032;-81
2022/06/04 10:59:19;;;;;;;42.00;19.08;;;;;;;24.19;61.90;101630.25;5077885;28;20024;-79
2022/06/04 11:01:57;;;;;;;42.58;18.90;;;;;;;24.08;62.03;101633.53;5040978;28;20434;-78
2022/06/04 11:04:57;;;;;;;53.83;23.17;;;;;;;24.24;60.62;101634.41;5077782;28;20032;-78
2022/06/04 11:07:52;;;;;;;40.53;21.15;;;;;;;24.12;62.55;101637.69;5077800;28;20024;-79
2022/06/04 11:10:22;;;;;;;49.83;21.85;;;;;;;24.56;61.53;101633.16;5076230;28;20537;-79
2022/06/04 11:12:55;;;;;;;40.17;21.13;;;;;;;24.36;62.15;101635.66;5075088;28;20032;-78
2022/06/04 11:15:36;;;;;;;36.22;18.92;;;;;;;24.51;62.56;101633.69;5096642;28;20044;-79
2022/06/04 11:18:21;;;;;;;39.63;20.70;;;;;;;24.83;61.10;101644.72;5096318;28;20056;-78
2022/06/04 11:21:19;;;;;;;41.13;20.88;;;;;;;24.65;59.63;101650.72;5097582;28;20081;-79
2022/06/04 11:23:54;;;;;;;49.28;22.92;;;;;;;24.08;61.00;101646.66;5090557;28;20581;-80
2022/06/04 11:26:50;;;;;;;38.05;20.88;;;;;;;24.52;61.03;101648.59;5097737;28;20098;-78
2022/06/04 11:29:18;;;;;;;50.97;21.80;;;;;;;24.25;61.99;101645.38;5068856;28;20044;-79
2022/06/04 11:32:15;;;;;;;50.05;20.73;;;;;;;23.60;64.01;101647.78;5096084;28;20032;-78
2022/06/04 11:35:11;;;;;;;47.78;22.80;;;;;;;23.57;63.77;101650.94;5094780;28;20032;-79
2022/06/04 11:37:59;;;;;;;43.15;21.83;;;;;;;23.55;64.69;101666.19;5089235;28;20028;-78
2022/06/04 11:40:34;;;;;;;43.75;21.92;;;;;;;23.57;62.87;101650.94;5077243;28;20092;-79
2022/06/04 11:43:19;;;;;;;45.10;20.63;;;;;;;23.21;66.20;101643.19;5076088;28;20036;-79
2022/06/04 11:46:03;;;;;;;41.10;19.73;;;;;;;23.40;64.84;101649.31;5097462;28;20103;-79
2022/06/04 11:48:47;;;;;;;38.53;17.25;;;;;;;24.17;64.08;101653.88;5092478;28;20035;-78